Time;durP1;ratioP1;P1;durP2;ratioP2;P2;SDS_P1;SDS_P2;PMS_P1;PMS_P2;Temp;Humidity;BMP_temperature;BMP_pressure;BME280_temperature;BME280_humidity;BME280_pressure;Samples;Min_cycle;Max_cycle;Signal;HPM_P1;HPM_P2
2023/05/17 00:00:32;;;;;;;7.60;2.70;;;10.20;82.60;;;;;;5068516;28;20025;-67
2023/05/17 00:02:57;;;;;;;9.52;3.30;;;10.10;82.70;;;;;;5069015;28;20020;-67
2023/05/17 00:05:23;;;;;;;7.93;2.83;;;10.10;82.80;;;;;;5068846;28;20033;-67
2023/05/17 00:07:49;;;;;;;6.78;2.55;;;10.10;82.90;;;;;;5072964;28;20048;-67
2023/05/17 00:10:14;;;;;;;9.05;2.92;;;10.10;82.80;;;;;;5069825;28;20111;-68
2023/05/17 00:12:40;;;;;;;6.15;2.40;;;10.10;82.80;;;;;;5076536;28;20093;-68
2023/05/17 00:15:06;;;;;;;7.95;3.17;;;10.10;82.80;;;;;;5072896;28;20063;-68
2023/05/17 00:17:32;;;;;;;8.35;3.38;;;10.20;82.80;;;;;;5066437;28;20126;-67
2023/05/17 00:19:57;;;;;;;7.22;2.60;;;10.10;82.90;;;;;;5067010;28;20127;-67
2023/05/17 00:22:23;;;;;;;7.68;2.95;;;10.10;83.00;;;;;;5070926;28;20016;-69
2023/05/17 00:24:48;;;;;;;10.02;3.58;;;10.10;83.10;;;;;;5073005;28;21484;-69
2023/05/17 00:27:14;;;;;;;8.75;2.90;;;10.10;83.30;;;;;;5072272;28;20051;-67
2023/05/17 00:29:39;;;;;;;11.65;3.70;;;10.10;83.40;;;;;;5071103;28;20036;-67
2023/05/17 00:32:05;;;;;;;7.28;3.20;;;10.10;83.50;;;;;;5072121;28;20021;-68
2023/05/17 00:34:31;;;;;;;6.78;3.10;;;10.00;83.50;;;;;;5075844;28;20516;-69
2023/05/17 00:36:56;;;;;;;8.50;3.20;;;10.00;83.60;;;;;;5071725;28;20032;-70
2023/05/17 00:39:22;;;;;;;8.13;2.97;;;10.00;83.60;;;;;;5074534;28;20028;-67
2023/05/17 00:41:48;;;;;;;6.88;3.10;;;10.00;83.60;;;;;;5075300;28;20052;-70
2023/05/17 00:44:13;;;;;;;7.85;2.95;;;10.00;83.60;;;;;;5079803;28;20386;-67
2023/05/17 00:46:39;;;;;;;8.43;3.03;;;10.10;83.60;;;;;;5074648;28;20025;-70
2023/05/17 00:49:05;;;;;;;8.65;3.35;;;10.00;83.60;;;;;;5076780;28;20335;-66
2023/05/17 00:51:31;;;;;;;7.35;3.00;;;10.00;83.70;;;;;;5076041;28;20028;-67
2023/05/17 00:53:57;;;;;;;9.30;3.45;;;10.00;83.70;;;;;;5075221;28;20119;-68
2023/05/17 00:56:23;;;;;;;8.65;3.13;;;10.00;83.80;;;;;;5067834;28;20100;-66
2023/05/17 00:58:49;;;;;;;8.00;3.30;;;10.00;84.00;;;;;;5071534;28;20712;-67
2023/05/17 01:01:17;;;;;;;8.95;2.95;;;10.00;84.00;;;;;;5076296;28;20088;-68
2023/05/17 01:03:43;;;;;;;8.15;3.03;;;10.00;84.10;;;;;;5071060;28;20052;-68
2023/05/17 01:06:09;;;;;;;8.20;3.13;;;10.00;84.30;;;;;;5070817;28;20413;-67
2023/05/17 01:08:35;;;;;;;9.15;3.17;;;10.00;84.20;;;;;;5073935;28;20058;-67
2023/05/17 01:11:19;;;;;;;10.13;3.08;;;10.00;84.30;;;;;;5074889;28;20024;-67
2023/05/17 01:14:08;;;;;;;9.95;2.90;;;10.00;84.40;;;;;;5068672;28;20021;-68
2023/05/17 01:16:43;;;;;;;8.43;3.10;;;10.00;84.20;;;;;;5074985;28;20020;-69
2023/05/17 01:19:21;;;;;;;9.43;3.53;;;10.00;84.30;;;;;;5073849;28;20021;-69
2023/05/17 01:21:58;;;;;;;7.15;3.03;;;10.00;84.40;;;;;;5072402;28;20020;-71
2023/05/17 01:24:43;;;;;;;6.88;2.97;;;10.00;84.40;;;;;;5077384;28;20043;-69
2023/05/17 01:27:10;;;;;;;9.60;3.67;;;9.90;84.40;;;;;;5075631;28;20051;-70
2023/05/17 01:29:37;;;;;;;8.13;3.28;;;9.90;84.50;;;;;;5075395;28;20099;-69
2023/05/17 01:32:05;;;;;;;6.88;3.22;;;9.90;84.60;;;;;;5068465;28;20016;-72
2023/05/17 01:34:30;;;;;;;6.68;2.90;;;9.90;84.50;;;;;;5071309;28;20036;-68
2023/05/17 01:36:56;;;;;;;8.27;3.47;;;9.90;84.60;;;;;;5075948;28;20013;-68
2023/05/17 01:39:22;;;;;;;8.93;3.70;;;9.90;84.50;;;;;;5073539;28;20084;-68
2023/05/17 01:42:04;;;;;;;9.00;3.55;;;9.90;84.50;;;;;;5075765;28;20095;-69
2023/05/17 01:44:44;;;;;;;9.13;3.27;;;10.00;84.70;;;;;;5074748;28;20025;-72
2023/05/17 01:47:32;;;;;;;8.35;3.60;;;10.00;84.70;;;;;;5070960;28;20024;-71
2023/05/17 01:49:59;;;;;;;8.93;3.80;;;10.00;84.90;;;;;;5068328;28;20035;-70
2023/05/17 01:52:30;;;;;;;8.02;3.47;;;9.90;84.90;;;;;;5074384;28;20517;-70
2023/05/17 01:55:15;;;;;;;8.88;3.45;;;9.90;85.00;;;;;;5075406;28;20085;-69
2023/05/17 01:57:43;;;;;;;11.45;4.10;;;10.00;85.10;;;;;;5070253;28;20479;-67
2023/05/17 02:00:10;;;;;;;11.18;4.03;;;10.00;85.30;;;;;;5071248;28;20510;-66
2023/05/17 02:02:36;;;;;;;7.60;3.50;;;10.00;85.40;;;;;;5075028;28;20017;-70
2023/05/17 02:05:01;;;;;;;5.70;3.22;;;10.00;85.40;;;;;;5064998;28;20414;-71
2023/05/17 02:07:27;;;;;;;10.07;4.30;;;10.10;85.40;;;;;;5070610;28;20406;-67
2023/05/17 02:09:52;;;;;;;12.95;3.85;;;10.00;85.40;;;;;;5066716;28;20491;-72
2023/05/17 02:12:18;;;;;;;10.68;4.15;;;10.00;85.40;;;;;;5069660;28;20435;-67
2023/05/17 02:14:43;;;;;;;7.72;3.55;;;10.00;85.60;;;;;;5070549;28;20100;-67
2023/05/17 02:17:09;;;;;;;12.98;4.45;;;10.00;85.50;;;;;;5072986;28;20352;-69
2023/05/17 02:19:34;;;;;;;10.55;3.85;;;10.10;85.70;;;;;;5079283;28;20416;-67
2023/05/17 02:22:00;;;;;;;8.25;3.90;;;10.10;85.70;;;;;;5087270;28;20382;-68
2023/05/17 02:24:25;;;;;;;12.80;4.35;;;10.10;85.70;;;;;;5077003;28;20393;-67
2023/05/17 02:26:51;;;;;;;9.05;4.25;;;10.00;85.70;;;;;;5072035;28;20048;-66
2023/05/17 02:29:16;;;;;;;9.75;4.03;;;10.00;85.70;;;;;;5068468;28;20568;-68
2023/05/17 02:31:42;;;;;;;10.20;4.10;;;10.00;85.80;;;;;;5070311;28;20383;-70
2023/05/17 02:34:08;;;;;;;10.43;3.92;;;10.00;85.90;;;;;;5075297;28;20515;-67
2023/05/17 02:36:33;;;;;;;9.07;3.80;;;10.00;85.90;;;;;;5073982;28;20038;-66
2023/05/17 02:38:59;;;;;;;11.57;4.82;;;10.10;85.90;;;;;;5082137;28;20028;-66
2023/05/17 02:41:24;;;;;;;9.48;3.83;;;10.10;85.80;;;;;;5079018;28;20038;-69
2023/05/17 02:43:50;;;;;;;9.23;4.32;;;10.20;86.60;;;;;;5082085;28;20073;-69
2023/05/17 02:46:15;;;;;;;10.77;4.72;;;10.20;86.00;;;;;;5071136;28;20522;-67
2023/05/17 02:48:41;;;;;;;14.07;4.38;;;10.20;86.00;;;;;;5069067;28;20050;-69
2023/05/17 02:51:07;;;;;;;12.60;4.70;;;10.20;86.00;;;;;;5082738;28;20025;-68
2023/05/17 02:53:32;;;;;;;9.32;4.18;;;10.20;86.10;;;;;;5083022;28;20024;-68
2023/05/17 02:55:58;;;;;;;10.32;4.38;;;10.30;86.30;;;;;;5072558;28;20021;-67
2023/05/17 02:58:24;;;;;;;12.55;4.70;;;10.30;86.30;;;;;;5082011;28;20040;-67
2023/05/17 03:00:50;;;;;;;10.63;5.03;;;10.20;86.30;;;;;;5078506;28;20024;-67
2023/05/17 03:03:16;;;;;;;10.85;5.00;;;10.20;86.50;;;;;;5074850;28;20029;-68
2023/05/17 03:05:41;;;;;;;8.48;4.53;;;10.10;86.60;;;;;;5069407;28;20490;-69
2023/05/17 03:08:07;;;;;;;14.18;4.68;;;10.10;86.70;;;;;;5070411;28;20081;-66
2023/05/17 03:10:33;;;;;;;10.35;4.25;;;10.10;86.80;;;;;;5073924;28;20023;-67
2023/05/17 03:12:58;;;;;;;9.20;3.60;;;10.20;86.80;;;;;;5068589;28;20083;-67
2023/05/17 03:15:28;;;;;;;7.03;3.50;;;10.10;86.70;;;;;;5071338;28;20136;-69
2023/05/17 03:17:56;;;;;;;7.32;3.72;;;10.10;86.70;;;;;;5071902;28;20016;-69
2023/05/17 03:20:22;;;;;;;8.77;3.58;;;10.10;86.60;;;;;;5077525;28;20031;-70
2023/05/17 03:22:48;;;;;;;10.40;4.28;;;10.20;86.50;;;;;;5067731;28;20069;-71
2023/05/17 03:25:13;;;;;;;9.73;4.07;;;10.20;86.50;;;;;;5071259;28;20040;-66
2023/05/17 03:27:39;;;;;;;10.52;4.35;;;10.20;86.40;;;;;;5072176;28;20020;-66
2023/05/17 03:30:05;;;;;;;10.55;4.35;;;10.20;86.40;;;;;;5081068;28;20035;-67
2023/05/17 03:32:31;;;;;;;8.95;4.00;;;10.30;86.40;;;;;;5080424;28;20023;-66
2023/05/17 03:34:56;;;;;;;10.73;4.50;;;10.20;86.30;;;;;;5075590;28;20024;-67
2023/05/17 03:37:22;;;;;;;7.32;4.07;;;10.30;86.30;;;;;;5077499;28;20040;-67
2023/05/17 03:39:47;;;;;;;8.95;4.05;;;10.30;86.40;;;;;;5076103;28;20556;-66
2023/05/17 03:42:13;;;;;;;10.40;4.20;;;10.30;86.40;;;;;;5067219;28;20444;-65
2023/05/17 03:44:39;;;;;;;10.10;4.97;;;10.30;86.60;;;;;;5077712;28;20743;-67
2023/05/17 03:47:05;;;;;;;7.57;3.63;;;10.30;86.50;;;;;;5075073;28;20498;-68
2023/05/17 03:49:32;;;;;;;7.53;3.53;;;10.30;86.60;;;;;;5074480;28;20032;-70
2023/05/17 03:51:58;;;;;;;10.85;4.47;;;10.30;86.50;;;;;;5083715;28;20020;-69
2023/05/17 03:54:23;;;;;;;9.82;3.97;;;10.30;86.40;;;;;;5078541;28;20031;-66
2023/05/17 03:56:49;;;;;;;9.80;3.75;;;10.30;86.40;;;;;;5070985;28;20031;-69
2023/05/17 03:59:15;;;;;;;10.75;4.35;;;10.30;86.30;;;;;;5072313;28;20039;-66
2023/05/17 04:01:42;;;;;;;8.57;3.75;;;10.30;86.20;;;;;;5075052;28;20115;-69
2023/05/17 04:04:08;;;;;;;7.13;3.67;;;10.30;86.20;;;;;;5070379;28;20063;-68
2023/05/17 04:06:33;;;;;;;8.65;3.78;;;10.30;86.20;;;;;;5077715;28;20048;-69
2023/05/17 04:08:59;;;;;;;8.20;3.80;;;10.30;86.20;;;;;;5077930;28;20394;-67
2023/05/17 04:11:26;;;;;;;11.70;4.40;;;10.30;86.10;;;;;;5076181;28;20020;-68
2023/05/17 04:13:52;;;;;;;10.77;3.83;;;10.30;86.20;;;;;;5071212;28;20784;-70
2023/05/17 04:16:18;;;;;;;8.57;4.40;;;10.30;86.20;;;;;;5078410;28;20056;-69
2023/05/17 04:18:44;;;;;;;9.82;4.45;;;10.30;86.30;;;;;;5075042;28;20056;-68
2023/05/17 04:21:10;;;;;;;7.88;3.88;;;10.30;86.80;;;;;;5075010;28;20020;-70
2023/05/17 04:23:35;;;;;;;8.48;3.97;;;10.40;86.20;;;;;;5072659;28;20028;-70
2023/05/17 04:26:03;;;;;;;7.95;3.50;;;10.30;86.00;;;;;;5081149;28;20035;-68
2023/05/17 04:28:29;;;;;;;9.35;3.70;;;10.40;86.00;;;;;;5077801;28;20075;-67
2023/05/17 04:30:55;;;;;;;8.80;4.03;;;10.30;85.90;;;;;;5077431;28;20489;-69
2023/05/17 04:33:21;;;;;;;9.27;3.45;;;10.30;85.90;;;;;;5071439;28;20031;-67
2023/05/17 04:35:46;;;;;;;6.50;3.30;;;10.30;85.70;;;;;;5072640;28;20024;-70
2023/05/17 04:38:13;;;;;;;7.60;3.45;;;10.30;85.60;;;;;;5071756;28;20024;-70
2023/05/17 04:40:38;;;;;;;7.40;3.53;;;10.30;85.60;;;;;;5081296;28;20095;-70
2023/05/17 04:43:04;;;;;;;9.55;4.18;;;10.30;85.60;;;;;;5077421;28;20112;-68
2023/05/17 04:45:32;;;;;;;8.43;3.97;;;10.30;85.70;;;;;;5078973;28;20032;-70
2023/05/17 04:47:58;;;;;;;8.02;3.83;;;10.40;85.60;;;;;;5077335;28;20021;-68
2023/05/17 04:50:24;;;;;;;9.85;3.70;;;10.40;85.50;;;;;;5077161;28;20020;-68
2023/05/17 04:52:50;;;;;;;8.20;3.45;;;10.50;85.50;;;;;;5069874;28;20047;-67
2023/05/17 04:55:15;;;;;;;8.23;3.80;;;10.50;85.30;;;;;;5077737;28;20523;-69
2023/05/17 04:57:41;;;;;;;7.80;3.42;;;10.60;85.10;;;;;;5077335;28;20039;-68
2023/05/17 05:00:08;;;;;;;8.80;3.42;;;10.70;84.90;;;;;;5075244;28;20025;-69
2023/05/17 05:02:34;;;;;;;7.85;3.40;;;10.80;84.60;;;;;;5082357;28;20051;-67
2023/05/17 05:05:00;;;;;;;8.10;3.50;;;11.00;84.60;;;;;;5076857;28;20137;-68
2023/05/17 05:07:26;;;;;;;7.25;3.50;;;11.30;84.80;;;;;;5079180;28;20082;-68
2023/05/17 05:09:51;;;;;;;10.50;3.50;;;12.10;83.60;;;;;;5082510;28;20517;-68
2023/05/17 05:12:17;;;;;;;9.05;3.78;;;12.80;81.90;;;;;;5075719;28;20103;-69
2023/05/17 05:14:43;;;;;;;8.95;3.47;;;13.30;79.30;;;;;;5077351;28;20117;-69
2023/05/17 05:17:08;;;;;;;9.50;3.10;;;14.00;77.50;;;;;;5085630;28;20020;-68
2023/05/17 05:19:34;;;;;;;7.45;3.08;;;14.80;75.50;;;;;;5080428;28;20020;-68
2023/05/17 05:22:00;;;;;;;10.48;3.05;;;15.40;73.30;;;;;;5083627;28;20043;-70
2023/05/17 05:24:25;;;;;;;7.43;2.78;;;16.00;71.30;;;;;;5080959;28;20028;-67
2023/05/17 05:26:51;;;;;;;8.93;2.80;;;16.30;69.50;;;;;;5075345;28;20037;-67
2023/05/17 05:29:17;;;;;;;8.15;3.47;;;16.10;68.80;;;;;;5080311;28;20021;-69
2023/05/17 05:31:42;;;;;;;9.88;3.20;;;15.50;69.60;;;;;;5079889;28;20024;-68
2023/05/17 05:34:09;;;;;;;6.65;2.88;;;15.20;70.80;;;;;;5080944;28;20032;-70
2023/05/17 05:36:34;;;;;;;6.63;3.05;;;15.10;71.20;;;;;;5077203;28;20020;-69
2023/05/17 05:39:00;;;;;;;8.60;3.08;;;14.80;71.60;;;;;;5079485;28;20438;-68
2023/05/17 05:41:25;;;;;;;7.20;2.88;;;14.40;72.70;;;;;;5073192;28;20624;-67
2023/05/17 05:43:51;;;;;;;7.13;2.88;;;14.10;73.80;;;;;;5079855;28;20035;-68
2023/05/17 05:46:16;;;;;;;8.25;3.13;;;13.80;74.90;;;;;;5076473;28;20448;-69
2023/05/17 05:48:43;;;;;;;8.30;2.92;;;13.50;75.70;;;;;;5074329;28;20697;-66
2023/05/17 05:51:09;;;;;;;7.82;2.88;;;13.30;76.60;;;;;;5075129;28;20449;-69
2023/05/17 05:53:35;;;;;;;9.15;3.10;;;13.00;77.20;;;;;;5073695;28;20115;-68
2023/05/17 05:56:01;;;;;;;9.88;4.00;;;12.80;77.90;;;;;;5068525;28;20099;-69
2023/05/17 05:58:27;;;;;;;10.32;3.85;;;12.60;78.60;;;;;;5070587;28;20037;-69
2023/05/17 06:00:53;;;;;;;7.65;3.40;;;12.40;79.20;;;;;;5080364;28;20024;-70
2023/05/17 06:03:19;;;;;;;7.95;3.47;;;12.30;79.60;;;;;;5066606;28;20032;-70
2023/05/17 06:05:44;;;;;;;7.50;3.20;;;12.40;80.30;;;;;;5069749;28;20082;-67
2023/05/17 06:08:10;;;;;;;8.18;3.58;;;12.80;79.60;;;;;;5070769;28;20012;-67
2023/05/17 06:10:35;;;;;;;7.85;3.22;;;12.80;79.10;;;;;;5078712;28;20070;-69
2023/05/17 06:13:01;;;;;;;9.93;3.60;;;13.00;78.70;;;;;;5078769;28;20040;-67
2023/05/17 06:15:27;;;;;;;9.60;3.13;;;13.70;77.00;;;;;;5079910;28;20020;-67
2023/05/17 06:17:53;;;;;;;8.52;3.42;;;13.70;76.20;;;;;;5076233;28;20083;-67
2023/05/17 06:20:18;;;;;;;10.27;3.40;;;14.30;76.00;;;;;;5083376;28;20500;-68
2023/05/17 06:22:44;;;;;;;10.10;3.70;;;15.30;72.40;;;;;;5077860;28;20029;-67
2023/05/17 06:25:10;;;;;;;6.97;2.78;;;14.90;71.70;;;;;;5067978;28;20020;-71
2023/05/17 06:27:35;;;;;;;7.25;2.90;;;14.30;73.00;;;;;;5064947;28;20024;-70
2023/05/17 06:30:03;;;;;;;8.40;2.67;;;13.80;74.30;;;;;;5068698;28;21657;-67
2023/05/17 06:32:29;;;;;;;10.73;2.92;;;13.70;75.50;;;;;;5072501;28;20036;-68
2023/05/17 06:34:55;;;;;;;8.50;2.80;;;13.70;75.90;;;;;;5072018;28;20047;-68
2023/05/17 06:37:20;;;;;;;9.55;3.03;;;13.60;76.30;;;;;;5064779;28;20033;-73
2023/05/17 06:39:50;;;;;;;10.35;3.05;;;13.60;76.20;;;;;;5070277;28;20128;-67
2023/05/17 06:42:15;;;;;;;7.85;2.83;;;13.60;76.40;;;;;;5068453;28;20017;-68
2023/05/17 06:44:41;;;;;;;8.05;2.85;;;13.80;76.40;;;;;;5066829;28;20021;-68
2023/05/17 06:47:07;;;;;;;10.13;2.70;;;14.00;76.00;;;;;;5068806;28;20024;-67
2023/05/17 06:49:32;;;;;;;9.52;2.28;;;14.00;75.60;;;;;;5080181;28;20035;-68
2023/05/17 06:52:02;;;;;;;7.82;2.60;;;14.00;75.60;;;;;;5077024;28;20402;-67
2023/05/17 06:54:29;;;;;;;8.43;2.20;;;14.10;75.10;;;;;;5065997;28;20028;-67
2023/05/17 06:56:58;;;;;;;7.03;2.45;;;14.10;74.70;;;;;;5067513;28;20073;-69
2023/05/17 06:59:23;;;;;;;7.68;2.40;;;14.10;74.50;;;;;;5070037;28;20103;-67
2023/05/17 07:01:49;;;;;;;6.50;2.10;;;14.00;74.20;;;;;;5071617;28;20111;-68
2023/05/17 07:04:14;;;;;;;9.43;2.45;;;14.20;74.20;;;;;;5076311;28;20055;-67
2023/05/17 07:06:40;;;;;;;6.15;1.90;;;14.40;73.80;;;;;;5072742;28;20070;-69
2023/05/17 07:09:05;;;;;;;7.50;2.00;;;14.40;72.80;;;;;;5070259;28;20569;-67
2023/05/17 07:11:31;;;;;;;7.43;1.70;;;14.30;72.40;;;;;;5077966;28;20463;-68
2023/05/17 07:13:57;;;;;;;6.60;1.80;;;14.20;72.20;;;;;;5088532;28;20016;-68
2023/05/17 07:16:22;;;;;;;6.47;1.70;;;14.10;72.00;;;;;;5078995;28;20021;-71
2023/05/17 07:18:48;;;;;;;7.15;1.98;;;14.10;72.30;;;;;;5082858;28;20027;-68
2023/05/17 07:21:13;;;;;;;5.10;1.90;;;14.10;71.80;;;;;;5072767;28;20032;-68
2023/05/17 07:23:39;;;;;;;6.95;2.00;;;14.10;71.10;;;;;;5078920;28;20028;-69
2023/05/17 07:26:04;;;;;;;5.97;1.80;;;14.00;71.50;;;;;;5072136;28;20111;-69
2023/05/17 07:28:30;;;;;;;7.47;1.67;;;13.90;70.40;;;;;;5072210;28;20051;-68
2023/05/17 07:30:56;;;;;;;5.53;1.75;;;13.80;70.50;;;;;;5075519;28;20024;-68
2023/05/17 07:33:21;;;;;;;6.25;1.90;;;13.80;70.20;;;;;;5081035;28;20478;-70
2023/05/17 07:35:47;;;;;;;11.85;2.22;;;13.80;70.30;;;;;;5077648;28;20056;-68
2023/05/17 07:38:12;;;;;;;4.78;1.70;;;13.90;69.70;;;;;;5070667;28;20035;-68
2023/05/17 07:40:38;;;;;;;6.00;1.70;;;14.10;69.40;;;;;;5069313;28;20013;-70
2023/05/17 07:43:04;;;;;;;7.30;1.80;;;14.40;68.70;;;;;;5070215;28;20780;-68
2023/05/17 07:45:30;;;;;;;6.57;1.90;;;14.50;67.90;;;;;;5081675;28;20020;-68
2023/05/17 07:47:55;;;;;;;8.50;1.77;;;14.60;67.30;;;;;;5083754;28;20062;-69
2023/05/17 07:50:21;;;;;;;7.60;1.95;;;14.60;66.50;;;;;;5078925;28;20031;-68
2023/05/17 07:52:47;;;;;;;7.32;1.70;;;14.40;65.90;;;;;;5079292;28;20029;-69
2023/05/17 07:55:12;;;;;;;6.35;1.77;;;14.30;65.30;;;;;;5082607;28;20138;-73
2023/05/17 07:57:38;;;;;;;5.60;1.60;;;14.30;65.70;;;;;;5067359;28;20028;-69
2023/05/17 08:00:07;;;;;;;8.15;2.10;;;14.50;65.30;;;;;;5069776;28;20104;-68
2023/05/17 08:02:33;;;;;;;6.22;1.65;;;14.40;64.20;;;;;;5071849;28;20028;-71
2023/05/17 08:04:58;;;;;;;6.35;2.08;;;14.30;64.20;;;;;;5064611;28;20123;-69
2023/05/17 08:07:24;;;;;;;6.47;1.70;;;14.30;64.40;;;;;;5067829;28;20485;-69
2023/05/17 08:09:50;;;;;;;5.20;1.73;;;14.50;64.50;;;;;;5067649;28;20518;-70
2023/05/17 08:12:15;;;;;;;6.63;1.58;;;14.70;64.50;;;;;;5082696;28;20106;-69
2023/05/17 08:14:41;;;;;;;9.02;1.77;;;14.70;64.10;;;;;;5071210;28;20103;-70
2023/05/17 08:17:06;;;;;;;7.13;2.08;;;14.90;63.90;;;;;;5076225;28;20063;-67
2023/05/17 08:19:32;;;;;;;7.65;1.90;;;15.10;63.20;;;;;;5070667;28;20017;-69
2023/05/17 08:21:57;;;;;;;5.40;1.65;;;15.10;61.40;;;;;;5076624;28;20020;-69
2023/05/17 08:24:23;;;;;;;6.78;1.90;;;15.00;61.00;;;;;;5069196;28;20169;-70
2023/05/17 08:26:48;;;;;;;7.43;2.10;;;15.00;59.40;;;;;;5076952;28;20111;-68
2023/05/17 08:29:14;;;;;;;5.95;1.55;;;14.90;59.40;;;;;;5079951;28;20184;-69
2023/05/17 08:31:40;;;;;;;5.40;1.42;;;14.90;59.50;;;;;;5080369;28;20031;-68
2023/05/17 08:34:05;;;;;;;4.57;1.60;;;15.00;59.60;;;;;;5060293;28;20040;-68
2023/05/17 08:36:31;;;;;;;3.45;1.38;;;15.00;59.00;;;;;;5073377;28;20020;-68
2023/05/17 08:38:56;;;;;;;5.43;1.50;;;15.00;59.20;;;;;;5072279;28;20024;-70
2023/05/17 08:41:22;;;;;;;5.47;1.48;;;15.10;59.00;;;;;;5067803;28;20033;-68
2023/05/17 08:43:49;;;;;;;4.45;1.17;;;15.10;58.80;;;;;;5064289;28;20070;-69
2023/05/17 08:46:20;;;;;;;5.00;1.60;;;15.10;58.70;;;;;;5073795;28;20074;-70
2023/05/17 08:48:49;;;;;;;5.55;1.77;;;15.20;58.10;;;;;;5066250;28;20395;-67
2023/05/17 08:51:17;;;;;;;7.70;1.50;;;15.30;57.70;;;;;;5070917;28;20027;-67
2023/05/17 08:53:45;;;;;;;4.38;1.52;;;15.30;57.30;;;;;;5080499;28;20031;-67
2023/05/17 08:56:13;;;;;;;4.40;1.63;;;15.40;57.10;;;;;;5074543;28;20374;-67
2023/05/17 08:58:42;;;;;;;4.13;1.30;;;15.40;56.40;;;;;;5074363;28;20038;-69
2023/05/17 09:01:08;;;;;;;4.18;1.45;;;15.50;56.30;;;;;;5070837;28;20021;-69
2023/05/17 09:03:38;;;;;;;4.30;1.45;;;15.50;55.80;;;;;;5079434;28;20077;-69
2023/05/17 09:06:05;;;;;;;5.78;1.33;;;15.50;55.50;;;;;;5074966;28;20035;-67
2023/05/17 09:08:31;;;;;;;5.03;1.45;;;15.50;55.00;;;;;;5072840;28;20048;-67
2023/05/17 09:10:58;;;;;;;5.15;1.58;;;15.60;55.00;;;;;;5070452;28;20028;-67
2023/05/17 09:13:24;;;;;;;7.35;1.73;;;15.70;55.30;;;;;;5076526;28;20020;-67
2023/05/17 09:15:50;;;;;;;4.93;1.80;;;15.60;54.80;;;;;;5074775;28;20027;-67
2023/05/17 09:18:16;;;;;;;5.63;1.65;;;15.60;55.20;;;;;;5084364;28;20389;-68
2023/05/17 09:20:50;;;;;;;6.25;1.40;;;15.40;54.20;;;;;;5074334;28;20015;-67
2023/05/17 09:23:19;;;;;;;4.43;1.35;;;15.30;54.20;;;;;;5081037;28;20051;-67
2023/05/17 09:25:48;;;;;;;4.60;1.48;;;15.30;54.40;;;;;;5082837;28;20521;-69
2023/05/17 09:28:16;;;;;;;4.32;1.45;;;15.40;54.00;;;;;;5075369;28;20035;-67
2023/05/17 09:30:42;;;;;;;3.45;1.20;;;15.50;53.80;;;;;;5070901;28;20056;-67
2023/05/17 09:33:09;;;;;;;5.93;1.40;;;15.70;53.90;;;;;;5081575;28;20505;-67
2023/05/17 09:35:37;;;;;;;4.05;1.67;;;15.80;53.00;;;;;;5085639;28;20104;-68
2023/05/17 09:38:25;;;;;;;5.82;1.52;;;15.90;52.70;;;;;;5078587;28;20021;-68
2023/05/17 09:40:51;;;;;;;3.83;1.33;;;16.00;51.40;;;;;;5070726;28;20048;-67
2023/05/17 09:43:23;;;;;;;4.68;1.42;;;16.00;51.80;;;;;;5076450;28;20048;-67
2023/05/17 09:45:55;;;;;;;3.55;1.20;;;16.10;51.70;;;;;;5076722;28;20025;-67
2023/05/17 09:48:21;;;;;;;4.65;1.42;;;15.90;51.40;;;;;;5085319;28;20386;-69
2023/05/17 09:50:49;;;;;;;4.30;1.45;;;15.80;51.90;;;;;;5077673;28;20017;-69
2023/05/17 09:53:38;;;;;;;5.50;1.25;;;15.90;52.10;;;;;;5079991;28;20085;-68
2023/05/17 09:56:05;;;;;;;8.38;1.48;;;16.10;52.00;;;;;;5073674;28;20031;-71
2023/05/17 09:58:32;;;;;;;3.83;1.17;;;16.10;50.70;;;;;;5078691;28;20013;-68
2023/05/17 10:01:03;;;;;;;4.95;1.60;;;16.30;50.70;;;;;;5070918;28;20029;-68
2023/05/17 10:03:36;;;;;;;6.18;1.48;;;16.30;49.50;;;;;;5064701;28;20012;-70
2023/05/17 10:06:05;;;;;;;4.88;1.45;;;16.20;49.70;;;;;;5070816;28;20036;-68
2023/05/17 10:08:32;;;;;;;3.47;1.10;;;16.10;50.20;;;;;;5083209;28;20020;-67
2023/05/17 10:11:08;;;;;;;2.58;1.05;;;16.10;49.50;;;;;;5071451;28;20384;-68
2023/05/17 10:13:43;;;;;;;6.50;1.38;;;16.00;49.30;;;;;;5064360;28;20033;-68
2023/05/17 10:16:10;;;;;;;4.55;1.40;;;16.10;48.60;;;;;;5067669;28;20020;-67
2023/05/17 10:18:39;;;;;;;2.35;1.00;;;16.20;48.40;;;;;;5064948;28;20028;-68
2023/05/17 10:21:06;;;;;;;4.10;1.10;;;16.20;48.40;;;;;;5082041;28;20031;-66
2023/05/17 10:23:33;;;;;;;4.28;1.20;;;16.40;48.80;;;;;;5070268;28;20471;-67
2023/05/17 10:25:59;;;;;;;4.80;1.30;;;16.60;48.50;;;;;;5077733;28;20024;-66
2023/05/17 10:28:26;;;;;;;6.32;1.35;;;16.40;48.20;;;;;;5073504;28;20028;-67
2023/05/17 10:30:53;;;;;;;4.50;1.48;;;16.30;48.50;;;;;;5076192;28;20031;-67
2023/05/17 10:33:20;;;;;;;5.38;1.40;;;16.30;48.60;;;;;;5070843;28;20032;-66
2023/05/17 10:35:48;;;;;;;5.93;1.10;;;16.40;48.30;;;;;;5080290;28;20093;-67
2023/05/17 10:38:13;;;;;;;2.15;1.05;;;16.50;47.60;;;;;;5070578;28;20096;-68
2023/05/17 10:40:41;;;;;;;4.18;1.20;;;16.50;47.50;;;;;;5067395;28;20020;-66
2023/05/17 10:43:09;;;;;;;2.75;1.15;;;16.70;47.40;;;;;;5073712;28;20429;-66
2023/05/17 10:45:35;;;;;;;3.00;1.00;;;16.70;46.60;;;;;;5075194;28;20104;-66
2023/05/17 10:48:04;;;;;;;3.22;1.20;;;16.80;46.90;;;;;;5075964;28;20467;-67
2023/05/17 10:50:31;;;;;;;4.65;1.10;;;17.00;46.90;;;;;;5072761;28;20059;-67
2023/05/17 10:52:58;;;;;;;3.60;1.33;;;17.30;46.90;;;;;;5081003;28;20021;-68
2023/05/17 10:55:35;;;;;;;3.30;1.13;;;17.40;46.40;;;;;;5075355;28;20035;-66
2023/05/17 10:58:10;;;;;;;4.43;1.10;;;17.40;46.20;;;;;;5075576;28;20087;-67
2023/05/17 11:00:50;;;;;;;4.75;1.25;;;17.40;46.20;;;;;;5069677;28;20425;-67
2023/05/17 11:03:21;;;;;;;4.50;1.30;;;17.40;46.30;;;;;;5076167;28;20027;-66
2023/05/17 11:06:17;;;;;;;3.97;1.10;;;17.40;46.90;;;;;;5074067;28;20023;-67
2023/05/17 11:09:05;;;;;;;3.88;1.10;;;17.30;46.50;;;;;;5070470;28;20029;-67
2023/05/17 11:11:31;;;;;;;5.05;1.20;;;17.10;45.50;;;;;;5076053;28;20383;-67
2023/05/17 11:13:57;;;;;;;4.97;1.27;;;17.20;46.00;;;;;;5071827;28;20027;-69
2023/05/17 11:16:34;;;;;;;4.57;1.30;;;17.30;46.10;;;;;;5070353;28;20024;-67
2023/05/17 11:19:08;;;;;;;3.47;1.20;;;17.50;45.80;;;;;;5065380;28;20114;-69
2023/05/17 11:21:34;;;;;;;3.45;1.33;;;17.40;45.60;;;;;;5073234;28;20020;-68
2023/05/17 11:24:05;;;;;;;3.72;1.20;;;17.60;46.20;;;;;;5072833;28;20464;-68
2023/05/17 11:26:36;;;;;;;4.68;1.40;;;17.70;45.30;;;;;;5071203;28;20556;-68
2023/05/17 11:29:06;;;;;;;4.68;1.50;;;17.70;44.80;;;;;;5076633;28;20707;-67
2023/05/17 11:31:33;;;;;;;6.20;1.70;;;17.70;44.30;;;;;;5070487;28;20166;-68
2023/05/17 11:34:01;;;;;;;3.92;1.35;;;17.80;44.10;;;;;;5072733;28;20096;-68
2023/05/17 11:36:27;;;;;;;3.28;1.40;;;17.90;43.70;;;;;;5070007;28;20037;-67
2023/05/17 11:39:13;;;;;;;4.97;1.30;;;18.00;43.50;;;;;;5071067;28;20035;-68
2023/05/17 11:41:46;;;;;;;4.28;1.70;;;18.00;43.50;;;;;;5069510;28;20021;-68
2023/05/17 11:44:12;;;;;;;6.55;1.50;;;18.10;43.80;;;;;;5070169;28;20507;-67
2023/05/17 11:46:39;;;;;;;5.65;1.55;;;18.10;43.70;;;;;;5070152;28;20082;-68
2023/05/17 11:49:06;;;;;;;4.32;1.45;;;18.30;43.40;;;;;;5078617;28;20592;-67
2023/05/17 11:51:32;;;;;;;6.15;1.70;;;18.30;42.80;;;;;;5074246;28;20099;-69
2023/05/17 11:53:58;;;;;;;4.53;1.52;;;18.40;42.70;;;;;;5084600;28;20054;-68
2023/05/17 11:56:25;;;;;;;4.47;1.30;;;18.40;41.70;;;;;;5079491;28;20547;-68
2023/05/17 11:58:51;;;;;;;5.65;1.77;;;18.40;41.90;;;;;;5082983;28;20016;-67
2023/05/17 12:01:17;;;;;;;6.10;1.90;;;18.50;42.40;;;;;;5070394;28;20048;-67
2023/05/17 12:03:43;;;;;;;7.10;1.77;;;18.30;42.70;;;;;;5073241;28;20043;-67
2023/05/17 12:06:14;;;;;;;5.40;1.50;;;18.20;42.90;;;;;;5073581;28;20037;-68
2023/05/17 12:08:44;;;;;;;5.40;1.30;;;18.20;43.30;;;;;;5073095;28;20161;-67
2023/05/17 12:11:17;;;;;;;5.57;1.70;;;18.50;43.10;;;;;;5076765;28;20019;-68
2023/05/17 12:13:45;;;;;;;5.32;1.80;;;18.60;42.40;;;;;;5075898;28;20221;-68
2023/05/17 12:16:13;;;;;;;6.40;2.00;;;18.60;42.30;;;;;;5090203;28;20052;-68
2023/05/17 12:18:41;;;;;;;5.75;1.90;;;18.70;43.10;;;;;;5087016;28;20017;-69
2023/05/17 12:21:08;;;;;;;6.55;1.80;;;18.70;42.50;;;;;;5069833;28;20046;-70
2023/05/17 12:23:41;;;;;;;6.90;2.03;;;18.60;42.50;;;;;;5071230;28;20024;-67
2023/05/17 12:26:12;;;;;;;7.25;1.90;;;18.40;42.90;;;;;;5072997;28;20047;-69
2023/05/17 12:28:39;;;;;;;5.78;1.90;;;18.20;42.20;;;;;;5080501;28;20059;-68
2023/05/17 12:31:17;;;;;;;6.75;1.90;;;18.20;43.00;;;;;;5078093;28;20020;-67
2023/05/17 12:33:43;;;;;;;6.47;1.85;;;18.20;42.90;;;;;;5070045;28;20028;-67
2023/05/17 12:36:10;;;;;;;6.53;1.67;;;18.20;43.30;;;;;;5071709;28;20107;-67
2023/05/17 12:38:39;;;;;;;5.88;1.80;;;18.40;43.20;;;;;;5071983;28;20024;-67
2023/05/17 12:41:07;;;;;;;6.25;1.90;;;18.30;41.60;;;;;;5075062;28;20120;-67
2023/05/17 12:43:33;;;;;;;6.32;1.60;;;18.30;42.60;;;;;;5082075;28;20056;-67
2023/05/17 12:46:11;;;;;;;4.75;1.67;;;18.60;42.20;;;;;;5076543;28;20086;-67